createdAt,value
2023-02-11T00:00:46.193Z,17.57
2023-02-11T00:04:28.897Z,17.37
2023-02-11T00:08:16.943Z,16.50
2023-02-11T00:12:00.963Z,16.03
2023-02-11T00:15:43.623Z,15.23
2023-02-11T00:19:26.274Z,16.37
2023-02-11T00:23:11.889Z,15.27
2023-02-11T00:26:54.591Z,15.67
2023-02-11T00:30:39.210Z,15.63
2023-02-11T00:34:21.958Z,16.10
2023-02-11T00:38:04.669Z,15.13
2023-02-11T00:41:47.327Z,14.80
2023-02-11T00:45:32.952Z,15.10
2023-02-11T00:49:17.187Z,15.43
2023-02-11T00:52:59.921Z,14.37
2023-02-11T00:56:42.607Z,14.60
2023-02-11T01:00:25.326Z,14.77
2023-02-11T01:04:08.129Z,14.50
2023-02-11T01:07:52.454Z,14.87
2023-02-11T01:11:35.073Z,14.10
2023-02-11T01:15:19.581Z,14.90
2023-02-11T01:19:02.278Z,15.20
2023-02-11T01:22:44.901Z,14.67
2023-02-11T01:26:29.045Z,13.73
2023-02-11T01:30:14.161Z,14.17
2023-02-11T01:33:56.848Z,14.50
2023-02-11T01:37:39.492Z,13.53
2023-02-11T01:41:22.616Z,13.00
2023-02-11T01:45:38.477Z,12.87
2023-02-11T01:49:24.747Z,13.93
2023-02-11T01:53:21.820Z,12.80
2023-02-11T01:57:24.900Z,12.40
2023-02-11T02:01:11.707Z,12.40
2023-02-11T02:05:01.351Z,12.33
2023-02-11T02:08:47.051Z,12.73
2023-02-11T02:12:29.691Z,11.70
2023-02-11T02:16:14.047Z,12.77
2023-02-11T02:20:42.942Z,12.47
2023-02-11T02:24:36.363Z,11.43
2023-02-11T02:28:36.201Z,12.20
2023-02-11T02:32:32.194Z,12.10
2023-02-11T02:36:19.488Z,11.43
2023-02-11T02:40:05.892Z,10.60
2023-02-11T02:43:50.367Z,11.13
2023-02-11T02:47:34.502Z,11.17
2023-02-11T02:51:39.942Z,11.03
2023-02-11T02:55:36.590Z,11.50
2023-02-11T02:59:40.337Z,10.77
2023-02-11T03:03:30.087Z,10.10
2023-02-11T03:07:18.509Z,10.20
2023-02-11T03:11:02.582Z,9.20
2023-02-11T03:14:45.888Z,9.40
2023-02-11T03:18:30.747Z,9.50
2023-02-11T03:22:18.690Z,9.70
2023-02-11T03:26:05.838Z,8.87
2023-02-11T03:29:54.607Z,8.43
2023-02-11T03:33:41.965Z,8.60
2023-02-11T03:37:28.528Z,7.30
2023-02-11T03:41:11.548Z,8.07
2023-02-11T03:44:57.748Z,7.43
2023-02-11T03:48:43.548Z,7.60
2023-02-11T03:52:27.145Z,8.27
2023-02-11T03:56:11.923Z,7.67
2023-02-11T03:59:56.138Z,8.13
2023-02-11T04:03:39.164Z,7.60
2023-02-11T04:07:23.295Z,7.70
2023-02-11T04:11:05.953Z,6.83
2023-02-11T04:14:51.390Z,7.83
2023-02-11T04:18:34.034Z,8.03
2023-02-11T04:22:16.758Z,8.13
2023-02-11T04:26:00.739Z,7.80
2023-02-11T04:29:43.551Z,7.63
2023-02-11T04:33:26.206Z,8.00
2023-02-11T04:37:09.493Z,7.70
2023-02-11T04:40:52.181Z,7.50
2023-02-11T04:44:36.413Z,7.47
2023-02-11T04:48:19.010Z,7.53
2023-02-11T04:52:01.695Z,8.27
2023-02-11T04:55:44.348Z,7.90
2023-02-11T04:59:27.045Z,8.03
2023-02-11T05:03:11.164Z,7.63
2023-02-11T05:06:53.857Z,7.60
2023-02-11T05:10:36.683Z,8.73
2023-02-11T05:14:19.309Z,7.50
2023-02-11T05:18:02.012Z,7.73
2023-02-11T05:22:01.361Z,7.17
2023-02-11T05:25:45.036Z,7.63
2023-02-11T05:29:27.686Z,7.93
2023-02-11T05:33:10.348Z,7.30
2023-02-11T05:36:54.450Z,7.97
2023-02-11T05:40:37.301Z,7.63
2023-02-11T05:44:19.955Z,7.60
2023-02-11T05:48:03.926Z,7.47
2023-02-11T05:51:46.731Z,7.33
2023-02-11T05:55:30.987Z,7.00
2023-02-11T05:59:14.570Z,7.20
2023-02-11T06:02:57.359Z,7.03
2023-02-11T06:06:40.089Z,6.87
2023-02-11T06:10:23.234Z,6.73
2023-02-11T06:14:07.937Z,6.33
2023-02-11T06:17:50.609Z,6.40
2023-02-11T06:21:43.459Z,6.93
2023-02-11T06:25:26.990Z,7.10
2023-02-11T06:29:11.100Z,7.00
2023-02-11T06:32:54.772Z,7.00
2023-02-11T06:36:38.090Z,6.87
2023-02-11T06:40:20.902Z,6.77
2023-02-11T06:44:03.577Z,7.23
2023-02-11T06:47:47.820Z,6.87
2023-02-11T06:51:30.570Z,6.57
2023-02-11T06:55:13.247Z,6.03
2023-02-11T06:58:56.627Z,5.80
2023-02-11T07:02:39.461Z,5.83
2023-02-11T07:06:27.191Z,5.47
2023-02-11T07:10:10.264Z,5.43
2023-02-11T07:13:54.483Z,5.53
2023-02-11T07:17:37.460Z,5.40
2023-02-11T07:21:24.286Z,5.27
2023-02-11T07:25:07.539Z,5.53
2023-02-11T07:28:50.450Z,5.17
2023-02-11T07:32:33.136Z,5.43
2023-02-11T07:36:16.924Z,5.63
2023-02-11T07:40:00.950Z,5.73
2023-02-11T07:43:43.874Z,5.73
2023-02-11T07:47:26.679Z,5.83
2023-02-11T07:51:11.202Z,5.73
2023-02-11T07:54:55.999Z,5.83
2023-02-11T07:58:43.286Z,5.97
2023-02-11T08:02:26.042Z,5.83
2023-02-11T08:06:10.797Z,5.87
2023-02-11T08:09:54.348Z,5.87
2023-02-11T08:13:37.310Z,5.83
2023-02-11T08:17:21.347Z,5.80
2023-02-11T08:21:08.455Z,6.57
2023-02-11T08:24:53.110Z,7.23
2023-02-11T08:28:38.368Z,6.83
2023-02-11T08:32:25.506Z,7.27
2023-02-11T08:36:10.049Z,6.60
2023-02-11T08:39:52.785Z,6.80
2023-02-11T08:43:35.531Z,6.70
2023-02-11T08:47:18.228Z,6.80
2023-02-11T08:51:07.274Z,7.73
2023-02-11T08:54:50.887Z,6.60
2023-02-11T08:58:33.642Z,7.27
2023-02-11T09:02:16.655Z,7.10
2023-02-11T09:05:59.411Z,7.90
2023-02-11T09:09:46.417Z,7.63
2023-02-11T09:13:29.575Z,8.40
2023-02-11T09:17:14.147Z,8.40
2023-02-11T09:21:03.467Z,7.37
2023-02-11T09:24:47.557Z,7.70
2023-02-11T09:28:30.304Z,7.63
2023-02-11T09:32:13.135Z,7.77
2023-02-11T09:35:55.935Z,7.50
2023-02-11T09:39:38.876Z,7.93
2023-02-11T09:43:24.322Z,7.57
2023-02-11T09:47:08.688Z,8.03
2023-02-11T09:50:53.043Z,8.70
2023-02-11T09:54:40.682Z,9.13
2023-02-11T09:58:27.929Z,9.23
2023-02-11T10:02:17.080Z,9.20
2023-02-11T10:06:16.611Z,10.00
2023-02-11T10:10:09.002Z,9.53
2023-02-11T10:13:58.951Z,9.60
2023-02-11T10:17:46.891Z,9.63
2023-02-11T10:21:34.014Z,9.13
2023-02-11T10:25:22.861Z,9.77
2023-02-11T10:29:28.899Z,10.00
2023-02-11T10:33:19.879Z,9.37
2023-02-11T10:37:02.572Z,8.67
2023-02-11T10:40:45.454Z,8.73
2023-02-11T10:44:33.325Z,8.57
2023-02-11T10:48:42.375Z,9.63
2023-02-11T10:52:26.976Z,9.50
2023-02-11T10:56:12.971Z,9.37
2023-02-11T11:00:00.898Z,9.27
2023-02-11T11:03:48.832Z,11.53
2023-02-11T11:07:32.983Z,10.17
2023-02-11T11:11:17.518Z,10.20
2023-02-11T11:15:03.591Z,9.87
2023-02-11T11:18:47.401Z,9.33
2023-02-11T11:22:30.078Z,9.87
2023-02-11T11:26:14.354Z,10.00
2023-02-11T11:29:57.983Z,9.37
2023-02-11T11:33:44.526Z,9.97
2023-02-11T11:37:29.294Z,9.83
2023-02-11T11:41:25.266Z,9.63
2023-02-11T11:45:26.935Z,9.53
2023-02-11T11:49:24.255Z,9.57
2023-02-11T11:53:11.167Z,8.63
2023-02-11T11:56:57.694Z,9.03
2023-02-11T12:00:45.499Z,8.50
2023-02-11T12:04:52.582Z,7.73
2023-02-11T12:08:43.658Z,7.90
2023-02-11T12:12:34.758Z,7.87
2023-02-11T12:16:25.047Z,8.63
2023-02-11T12:20:23.730Z,8.97
2023-02-11T12:24:24.034Z,8.60
2023-02-11T12:28:21.694Z,9.30
2023-02-11T12:32:12.211Z,8.60
2023-02-11T12:36:00.793Z,8.20
2023-02-11T12:39:46.185Z,8.63
2023-02-11T12:43:34.428Z,9.43
2023-02-11T12:47:22.422Z,8.17
2023-02-11T12:51:14.456Z,9.07
2023-02-11T12:54:59.627Z,8.40
2023-02-11T12:58:45.797Z,8.33
2023-02-11T13:02:35.466Z,8.93
2023-02-11T13:06:23.162Z,8.00
2023-02-11T13:10:21.528Z,8.60
2023-02-11T13:14:07.379Z,8.40
2023-02-11T13:18:03.364Z,8.53
2023-02-11T13:22:07.064Z,7.87
2023-02-11T13:25:53.118Z,10.03
2023-02-11T13:29:50.749Z,8.10
2023-02-11T13:33:35.658Z,7.33
2023-02-11T13:37:23.582Z,7.70
2023-02-11T13:41:09.472Z,8.17
2023-02-11T13:44:52.475Z,9.80
2023-02-11T13:48:37.336Z,8.20
2023-02-11T13:52:24.704Z,7.93
2023-02-11T13:56:09.385Z,7.93
2023-02-11T13:59:53.025Z,7.47
2023-02-11T14:03:55.788Z,8.03
2023-02-11T14:07:57.543Z,8.27
2023-02-11T14:11:48.845Z,8.37
2023-02-11T14:15:39.971Z,8.47
2023-02-11T14:19:32.917Z,7.80
2023-02-11T14:23:27.280Z,8.77
2023-02-11T14:27:12.211Z,8.10
2023-02-11T14:31:03.845Z,8.70
2023-02-11T14:34:53.035Z,7.50
2023-02-11T14:38:45.466Z,7.73
2023-02-11T14:42:29.428Z,8.60
2023-02-11T14:46:12.366Z,8.97
2023-02-11T14:49:55.948Z,9.47
2023-02-11T14:53:44.278Z,11.20
2023-02-11T14:57:27.790Z,11.20
2023-02-11T15:01:27.108Z,9.90
2023-02-11T15:05:18.972Z,10.40
2023-02-11T15:09:05.915Z,11.57
2023-02-11T15:12:49.996Z,11.20
2023-02-11T15:16:32.674Z,11.83
2023-02-11T15:20:21.099Z,11.83
2023-02-11T15:24:07.304Z,12.13
2023-02-11T15:27:51.509Z,12.77
2023-02-11T15:31:35.292Z,12.63
2023-02-11T15:35:18.439Z,13.03
2023-02-11T15:39:31.734Z,13.33
2023-02-11T15:43:18.927Z,12.70
2023-02-11T15:47:01.669Z,13.17
2023-02-11T15:50:50.831Z,13.30
2023-02-11T15:54:35.196Z,14.47
2023-02-11T15:58:17.923Z,14.57
2023-02-11T16:02:08.082Z,14.47
2023-02-11T16:05:51.237Z,13.87
2023-02-11T16:09:37.193Z,27.67
2023-02-11T16:13:23.662Z,16.13
2023-02-11T16:17:08.781Z,14.50
2023-02-11T16:20:51.788Z,15.27
2023-02-11T16:24:37.517Z,14.67
2023-02-11T16:28:20.974Z,16.00
2023-02-11T16:32:09.108Z,16.07
2023-02-11T16:35:51.791Z,15.97
2023-02-11T16:39:35.924Z,15.20
2023-02-11T16:43:20.181Z,14.83
2023-02-11T16:47:04.164Z,16.60
2023-02-11T16:50:51.504Z,16.60
2023-02-11T16:54:36.952Z,16.60
2023-02-11T16:58:19.884Z,17.40
2023-02-11T17:02:02.500Z,17.27
2023-02-11T17:05:55.067Z,17.67
2023-02-11T17:09:40.039Z,17.33
2023-02-11T17:13:22.690Z,16.40
2023-02-11T17:17:05.386Z,16.97
2023-02-11T17:20:48.105Z,17.87
2023-02-11T17:24:30.910Z,19.57
2023-02-11T17:28:15.013Z,19.73
2023-02-11T17:31:58.093Z,19.93
2023-02-11T17:35:41.619Z,20.80
2023-02-11T17:39:24.285Z,21.80
2023-02-11T17:43:07.028Z,20.07
2023-02-11T17:46:51.017Z,19.60
2023-02-11T17:50:36.709Z,19.90
2023-02-11T17:54:20.283Z,19.80
2023-02-11T17:58:03.018Z,19.67
2023-02-11T18:01:46.213Z,21.63
2023-02-11T18:05:34.946Z,22.13
2023-02-11T18:09:17.657Z,21.27
2023-02-11T18:13:00.562Z,19.90
2023-02-11T18:16:44.757Z,19.30
2023-02-11T18:20:27.517Z,20.63
2023-02-11T18:24:11.608Z,20.57
2023-02-11T18:27:54.251Z,20.67
2023-02-11T18:31:37.342Z,18.33
2023-02-11T18:35:20.115Z,19.60
2023-02-11T18:39:02.813Z,19.17
2023-02-11T18:42:47.895Z,18.97
2023-02-11T18:46:31.274Z,18.80
2023-02-11T18:50:15.651Z,18.03
2023-02-11T18:53:58.357Z,20.10
2023-02-11T18:57:41.192Z,19.73
2023-02-11T19:01:27.318Z,18.17
2023-02-11T19:05:11.352Z,18.77
2023-02-11T19:08:54.362Z,25.20
2023-02-11T19:12:39.206Z,24.37
2023-02-11T19:16:21.894Z,23.70
2023-02-11T19:20:07.196Z,23.77
2023-02-11T19:23:49.828Z,22.27
2023-02-11T19:27:32.539Z,23.03
2023-02-11T19:31:15.370Z,24.53
2023-02-11T19:34:58.034Z,23.13
2023-02-11T19:38:41.990Z,23.13
2023-02-11T19:42:27.584Z,22.53
2023-02-11T19:46:10.810Z,22.40
2023-02-11T19:49:53.471Z,23.37
2023-02-11T19:53:36.122Z,22.07
2023-02-11T19:57:20.137Z,23.67
2023-02-11T20:01:07.675Z,23.80
2023-02-11T20:04:50.389Z,23.00
2023-02-11T20:08:33.188Z,23.47
2023-02-11T20:12:15.842Z,23.13
2023-02-11T20:16:04.759Z,22.53
2023-02-11T20:19:47.486Z,22.20
2023-02-11T20:23:30.491Z,21.20
2023-02-11T20:27:13.288Z,21.33
2023-02-11T20:30:57.698Z,23.10
2023-02-11T20:34:41.821Z,19.30
2023-02-11T20:38:24.525Z,20.37
2023-02-11T20:42:07.340Z,20.77
2023-02-11T20:45:50.715Z,19.73
2023-02-11T20:49:33.698Z,21.13
2023-02-11T20:53:17.711Z,21.83
2023-02-11T20:57:00.460Z,21.43
2023-02-11T21:00:43.159Z,20.10
2023-02-11T21:04:27.033Z,19.57
2023-02-11T21:08:09.697Z,19.70
2023-02-11T21:11:54.426Z,18.70
2023-02-11T21:15:37.422Z,19.10
2023-02-11T21:19:20.342Z,19.97
2023-02-11T21:23:03.024Z,18.70
2023-02-11T21:26:45.739Z,21.07
2023-02-11T21:30:31.855Z,21.60
2023-02-11T21:34:16.075Z,20.93
2023-02-11T21:37:58.821Z,21.47
2023-02-11T21:41:41.705Z,20.67
2023-02-11T21:45:24.651Z,21.83
2023-02-11T21:49:08.682Z,20.07
2023-02-11T21:52:54.395Z,20.03
2023-02-11T21:56:37.355Z,20.37
2023-02-11T22:00:21.365Z,21.00
2023-02-11T22:04:04.322Z,20.07
2023-02-11T22:07:48.443Z,19.73
2023-02-11T22:11:31.266Z,19.47
2023-02-11T22:15:15.945Z,19.17
2023-02-11T22:18:59.360Z,18.40
2023-02-11T22:22:44.309Z,17.80
2023-02-11T22:26:29.137Z,16.53
2023-02-11T22:30:12.710Z,16.77
2023-02-11T22:33:55.979Z,16.53
2023-02-11T22:37:38.659Z,16.27
2023-02-11T22:41:22.260Z,16.23
2023-02-11T22:45:07.438Z,16.37
2023-02-11T22:48:50.702Z,17.57
2023-02-11T22:52:33.387Z,16.30
2023-02-11T22:56:16.712Z,16.93
2023-02-11T22:59:59.345Z,17.10
2023-02-11T23:03:43.426Z,17.27
2023-02-11T23:07:26.244Z,16.90
2023-02-11T23:11:10.975Z,17.30
2023-02-11T23:14:53.702Z,18.17
2023-02-11T23:18:39.404Z,18.53
2023-02-11T23:22:23.390Z,17.77
2023-02-11T23:26:10.798Z,18.50
2023-02-11T23:29:56.580Z,18.13
2023-02-11T23:33:39.261Z,19.13
2023-02-11T23:37:23.305Z,18.53
2023-02-11T23:41:06.199Z,19.00
2023-02-11T23:44:48.909Z,17.57
2023-02-11T23:48:31.583Z,18.20
2023-02-11T23:52:14.337Z,18.53
2023-02-11T23:55:58.403Z,17.73
2023-02-11T23:59:43.109Z,19.57
